createdAt,value
2018-09-30T00:00:39.421Z,15.17
2018-09-30T00:03:07.203Z,15.04
2018-09-30T00:05:34.925Z,15.00
2018-09-30T00:08:02.791Z,15.05
2018-09-30T00:10:30.562Z,14.94
2018-09-30T00:12:58.291Z,14.95
2018-09-30T00:15:26.007Z,14.95
2018-09-30T00:17:54.086Z,14.95
2018-09-30T00:20:21.834Z,14.99
2018-09-30T00:22:49.645Z,14.85
2018-09-30T00:25:22.962Z,14.86
2018-09-30T00:27:50.705Z,14.89
2018-09-30T00:30:18.433Z,14.81
2018-09-30T00:32:46.151Z,14.88
2018-09-30T00:35:13.902Z,14.67
2018-09-30T00:37:41.622Z,14.71
2018-09-30T00:40:09.395Z,14.78
2018-09-30T00:42:37.162Z,14.84
2018-09-30T00:45:04.910Z,14.78
2018-09-30T00:47:32.630Z,14.92
2018-09-30T00:50:00.542Z,14.98
2018-09-30T00:52:28.280Z,14.82
2018-09-30T00:54:56.015Z,14.67
2018-09-30T00:57:23.728Z,14.66
2018-09-30T00:59:51.485Z,14.59
2018-09-30T01:02:19.209Z,14.60
2018-09-30T01:04:46.925Z,14.65
2018-09-30T01:07:14.662Z,14.65
2018-09-30T01:09:42.392Z,14.66
2018-09-30T01:12:10.220Z,14.67
2018-09-30T01:14:37.940Z,14.53
2018-09-30T01:17:06.011Z,14.58
2018-09-30T01:19:33.738Z,14.52
2018-09-30T01:22:01.470Z,14.65
2018-09-30T01:24:29.198Z,14.61
2018-09-30T01:26:56.929Z,14.63
2018-09-30T01:29:24.665Z,14.56
2018-09-30T01:31:52.381Z,14.48
2018-09-30T01:34:20.105Z,14.50
2018-09-30T01:36:47.930Z,14.32
2018-09-30T01:39:15.782Z,14.40
2018-09-30T01:41:43.536Z,14.57
2018-09-30T01:44:11.265Z,14.59
2018-09-30T01:46:39.077Z,14.42
2018-09-30T01:49:06.836Z,14.47
2018-09-30T01:51:34.553Z,14.48
2018-09-30T01:54:02.285Z,14.46
2018-09-30T01:56:30.054Z,14.42
2018-09-30T01:58:57.900Z,14.47
2018-09-30T02:01:25.662Z,14.47
2018-09-30T02:03:53.390Z,14.48
2018-09-30T02:06:21.150Z,14.21
2018-09-30T02:08:48.907Z,14.20
2018-09-30T02:11:16.727Z,14.29
2018-09-30T02:13:44.474Z,14.20
2018-09-30T02:16:12.200Z,14.30
2018-09-30T02:18:39.930Z,14.28
2018-09-30T02:21:07.633Z,14.30
2018-09-30T02:23:35.346Z,14.30
2018-09-30T02:26:03.087Z,14.35
2018-09-30T02:28:30.827Z,14.34
2018-09-30T02:30:58.592Z,14.31
2018-09-30T02:33:29.900Z,14.34
2018-09-30T02:35:57.631Z,14.26
2018-09-30T02:38:25.353Z,14.25
2018-09-30T02:40:53.075Z,14.22
2018-09-30T02:43:20.788Z,14.24
2018-09-30T02:45:48.838Z,14.23
2018-09-30T02:48:16.583Z,14.30
2018-09-30T02:50:44.296Z,14.09
2018-09-30T02:53:12.035Z,14.08
2018-09-30T02:55:39.751Z,14.13
2018-09-30T02:58:08.013Z,14.08
2018-09-30T03:00:35.753Z,14.05
2018-09-30T03:03:03.716Z,14.11
2018-09-30T03:05:31.466Z,14.04
2018-09-30T03:08:04.598Z,14.12
2018-09-30T03:10:32.386Z,14.15
2018-09-30T03:13:00.135Z,14.02
2018-09-30T03:15:27.854Z,13.99
2018-09-30T03:17:55.565Z,13.95
2018-09-30T03:20:23.317Z,13.85
2018-09-30T03:22:51.030Z,14.01
2018-09-30T03:25:18.772Z,14.01
2018-09-30T03:27:46.494Z,13.98
2018-09-30T03:30:14.229Z,14.00
2018-09-30T03:32:41.966Z,14.13
2018-09-30T03:35:09.718Z,13.93
2018-09-30T03:37:37.486Z,13.93
2018-09-30T03:40:05.443Z,13.75
2018-09-30T03:42:33.170Z,14.05
2018-09-30T03:45:00.881Z,13.96
2018-09-30T03:47:28.614Z,13.89
2018-09-30T03:49:56.322Z,13.80
2018-09-30T03:52:24.050Z,13.81
2018-09-30T03:54:51.806Z,13.85
2018-09-30T03:57:19.605Z,13.88
2018-09-30T03:59:47.361Z,13.84
2018-09-30T04:02:15.087Z,13.60
2018-09-30T04:04:42.794Z,13.42
2018-09-30T04:07:10.558Z,13.44
2018-09-30T04:09:38.394Z,13.52
2018-09-30T04:12:06.104Z,13.51
2018-09-30T04:14:33.843Z,13.52
2018-09-30T04:17:01.630Z,13.50
2018-09-30T04:19:29.304Z,13.43
2018-09-30T04:21:57.085Z,13.54
2018-09-30T04:24:24.791Z,13.61
2018-09-30T04:26:52.534Z,13.72
2018-09-30T04:29:20.294Z,13.54
2018-09-30T04:31:47.997Z,13.50
2018-09-30T04:34:15.714Z,13.44
2018-09-30T04:36:43.442Z,13.50
2018-09-30T04:39:11.170Z,13.60
2018-09-30T04:41:38.887Z,13.66
2018-09-30T04:44:06.629Z,13.63
2018-09-30T04:46:34.417Z,13.80
2018-09-30T04:49:02.133Z,13.76
2018-09-30T04:51:29.854Z,13.61
2018-09-30T04:53:57.611Z,13.73
2018-09-30T04:56:25.325Z,13.64
2018-09-30T04:58:53.046Z,13.55
2018-09-30T05:01:20.778Z,13.41
2018-09-30T05:03:48.549Z,13.53
2018-09-30T05:06:16.266Z,13.54
2018-09-30T05:08:43.990Z,13.61
2018-09-30T05:11:11.738Z,13.65
2018-09-30T05:13:39.455Z,13.54
2018-09-30T05:16:07.269Z,13.43
2018-09-30T05:18:34.938Z,13.42
2018-09-30T05:21:02.682Z,13.53
2018-09-30T05:23:30.402Z,13.51
2018-09-30T05:25:58.173Z,13.47
2018-09-30T05:28:25.886Z,13.30
2018-09-30T05:30:53.642Z,13.46
2018-09-30T05:33:21.354Z,13.47
2018-09-30T05:35:49.095Z,13.41
2018-09-30T05:38:16.843Z,13.49
2018-09-30T05:40:44.581Z,13.49
2018-09-30T05:43:12.290Z,13.40
2018-09-30T05:45:40.053Z,13.42
2018-09-30T05:48:07.911Z,13.33
2018-09-30T05:50:35.706Z,13.52
2018-09-30T05:53:03.431Z,13.49
2018-09-30T05:55:31.133Z,13.35
2018-09-30T05:57:58.947Z,13.37
2018-09-30T06:00:26.662Z,13.59
2018-09-30T06:02:54.374Z,13.56
2018-09-30T06:05:22.077Z,13.39
2018-09-30T06:07:49.790Z,13.33
2018-09-30T06:10:17.506Z,13.44
2018-09-30T06:12:45.230Z,13.46
2018-09-30T06:15:12.947Z,13.40
2018-09-30T06:17:40.718Z,13.28
2018-09-30T06:20:08.483Z,13.39
2018-09-30T06:22:36.207Z,13.37
2018-09-30T06:25:04.035Z,13.40
2018-09-30T06:27:31.774Z,13.50
2018-09-30T06:29:59.510Z,13.55
2018-09-30T06:32:27.258Z,13.57
2018-09-30T06:34:54.977Z,13.59
2018-09-30T06:37:22.725Z,13.42
2018-09-30T06:39:50.434Z,13.49
2018-09-30T06:42:18.139Z,13.34
2018-09-30T06:44:45.862Z,13.45
2018-09-30T06:47:13.580Z,13.28
2018-09-30T06:49:41.283Z,13.32
2018-09-30T06:52:09.051Z,13.16
2018-09-30T06:54:36.774Z,13.19
2018-09-30T06:57:04.514Z,13.19
2018-09-30T06:59:32.245Z,13.20
2018-09-30T07:01:59.950Z,13.22
2018-09-30T07:04:27.670Z,13.15
2018-09-30T07:06:55.379Z,13.25
2018-09-30T07:09:23.158Z,13.22
2018-09-30T07:11:51.529Z,13.40
2018-09-30T07:14:19.389Z,13.43
2018-09-30T07:16:48.165Z,13.31
2018-09-30T07:19:15.921Z,13.24
2018-09-30T07:21:43.888Z,13.26
2018-09-30T07:24:11.631Z,13.24
2018-09-30T07:26:39.344Z,13.37
2018-09-30T07:29:07.337Z,13.33
2018-09-30T07:31:35.075Z,13.33
2018-09-30T07:34:02.802Z,13.34
2018-09-30T07:36:30.668Z,13.40
2018-09-30T07:38:58.378Z,13.33
2018-09-30T07:41:26.082Z,13.35
2018-09-30T07:43:53.794Z,13.40
2018-09-30T07:46:21.537Z,13.33
2018-09-30T07:48:49.258Z,13.30
2018-09-30T07:51:16.962Z,13.28
2018-09-30T07:53:44.684Z,13.32
2018-09-30T07:56:12.403Z,13.24
2018-09-30T07:58:40.342Z,13.17
2018-09-30T08:01:09.046Z,13.21
2018-09-30T08:03:36.841Z,13.18
2018-09-30T08:06:04.574Z,13.38
2018-09-30T08:08:32.282Z,13.29
2018-09-30T08:11:00.094Z,13.32
2018-09-30T08:13:27.807Z,13.29
2018-09-30T08:15:55.526Z,13.24
2018-09-30T08:18:23.234Z,13.34
2018-09-30T08:20:51.062Z,13.24
2018-09-30T08:23:18.771Z,13.34
2018-09-30T08:25:46.489Z,13.23
2018-09-30T08:28:14.198Z,13.37
2018-09-30T08:30:42.010Z,13.25
2018-09-30T08:33:09.766Z,13.26
2018-09-30T08:35:37.493Z,13.34
2018-09-30T08:38:10.645Z,13.39
2018-09-30T08:40:43.958Z,13.35
2018-09-30T08:43:11.669Z,13.17
2018-09-30T08:45:39.885Z,13.26
2018-09-30T08:48:07.569Z,13.36
2018-09-30T08:50:35.390Z,13.23
2018-09-30T08:53:03.121Z,13.26
2018-09-30T08:55:31.046Z,13.25
2018-09-30T08:57:58.760Z,13.28
2018-09-30T09:00:27.403Z,13.25
2018-09-30T09:02:55.139Z,13.34
2018-09-30T09:05:22.838Z,13.48
2018-09-30T09:07:50.934Z,13.38
2018-09-30T09:10:18.645Z,13.43
2018-09-30T09:12:46.375Z,13.34
2018-09-30T09:15:14.100Z,13.41
2018-09-30T09:17:41.852Z,13.37
2018-09-30T09:20:09.673Z,13.46
2018-09-30T09:22:37.424Z,13.46
2018-09-30T09:25:05.827Z,13.42
2018-09-30T09:27:33.617Z,13.33
2018-09-30T09:30:01.381Z,13.38
2018-09-30T09:32:32.795Z,13.42
2018-09-30T09:35:00.530Z,13.35
2018-09-30T09:37:28.254Z,13.32
2018-09-30T09:39:56.346Z,13.52
2018-09-30T09:42:24.066Z,13.49
2018-09-30T09:44:51.806Z,13.44
2018-09-30T09:47:19.514Z,13.44
2018-09-30T09:49:47.597Z,13.44
2018-09-30T09:52:15.302Z,13.49
2018-09-30T09:54:43.038Z,13.59
2018-09-30T09:57:10.753Z,13.56
2018-09-30T09:59:38.651Z,13.57
2018-09-30T10:02:06.390Z,13.66
2018-09-30T10:04:34.118Z,13.56
2018-09-30T10:07:01.857Z,13.56
2018-09-30T10:09:29.581Z,13.53
2018-09-30T10:11:57.584Z,13.44
2018-09-30T10:14:26.383Z,13.59
2018-09-30T10:16:54.170Z,13.60
2018-09-30T10:19:22.071Z,13.50
2018-09-30T10:21:49.739Z,13.46
2018-09-30T10:24:17.651Z,13.55
2018-09-30T10:26:45.346Z,13.55
2018-09-30T10:29:13.062Z,13.53
2018-09-30T10:31:40.799Z,13.52
2018-09-30T10:34:08.602Z,13.53
2018-09-30T10:36:36.317Z,13.49
2018-09-30T10:39:06.254Z,13.52
2018-09-30T10:41:33.849Z,13.52
2018-09-30T10:44:01.578Z,13.54
2018-09-30T10:46:29.319Z,13.50
2018-09-30T10:48:57.438Z,13.51
2018-09-30T10:51:25.149Z,13.47
2018-09-30T10:53:52.861Z,13.50
2018-09-30T10:56:20.658Z,13.56
2018-09-30T10:58:48.739Z,13.59
2018-09-30T11:01:16.690Z,13.59
2018-09-30T11:03:44.433Z,13.50
2018-09-30T11:06:12.137Z,13.48
2018-09-30T11:08:39.858Z,13.51
2018-09-30T11:11:07.619Z,13.49
2018-09-30T11:13:35.321Z,13.61
2018-09-30T11:16:03.060Z,13.60
2018-09-30T11:18:30.902Z,13.56
2018-09-30T11:20:58.638Z,13.54
2018-09-30T11:23:26.381Z,13.50
2018-09-30T11:25:54.106Z,13.54
2018-09-30T11:28:21.826Z,13.70
2018-09-30T11:30:49.558Z,13.63
2018-09-30T11:33:17.348Z,13.54
2018-09-30T11:35:45.132Z,13.64
2018-09-30T11:38:12.874Z,13.76
2018-09-30T11:40:40.622Z,13.58
2018-09-30T11:43:08.395Z,13.62
2018-09-30T11:45:36.142Z,13.72
2018-09-30T11:48:04.080Z,13.69
2018-09-30T11:50:31.945Z,13.63
2018-09-30T11:52:59.758Z,13.62
2018-09-30T11:55:27.701Z,13.59
2018-09-30T11:57:56.321Z,13.56
2018-09-30T12:00:24.053Z,13.46
2018-09-30T12:02:51.783Z,13.53
2018-09-30T12:05:19.541Z,13.63
2018-09-30T12:07:47.874Z,13.74
2018-09-30T12:10:15.610Z,13.52
2018-09-30T12:12:43.309Z,13.53
2018-09-30T12:15:11.090Z,13.54
2018-09-30T12:17:38.806Z,13.56
2018-09-30T12:20:06.682Z,13.52
2018-09-30T12:22:34.474Z,13.58
2018-09-30T12:25:02.360Z,13.56
2018-09-30T12:27:30.234Z,13.59
2018-09-30T12:29:57.951Z,13.54
2018-09-30T12:32:25.671Z,13.63
2018-09-30T12:34:53.401Z,13.51
2018-09-30T12:37:21.215Z,13.45
2018-09-30T12:39:48.934Z,13.46
2018-09-30T12:42:16.646Z,13.50
2018-09-30T12:44:44.387Z,13.56
2018-09-30T12:47:12.090Z,13.60
2018-09-30T12:49:39.902Z,13.62
2018-09-30T12:52:08.466Z,13.71
2018-09-30T12:54:37.078Z,13.59
2018-09-30T12:57:04.984Z,13.48
2018-09-30T12:59:32.806Z,13.50
2018-09-30T13:02:01.310Z,13.57
2018-09-30T13:04:29.322Z,13.44
2018-09-30T13:06:57.049Z,13.48
2018-09-30T13:09:24.827Z,13.43
2018-09-30T13:11:52.572Z,13.31
2018-09-30T13:14:20.317Z,13.49
2018-09-30T13:16:48.053Z,13.41
2018-09-30T13:19:15.758Z,13.39
2018-09-30T13:21:43.488Z,13.40
2018-09-30T13:24:11.309Z,13.43
2018-09-30T13:26:39.083Z,13.38
2018-09-30T13:29:06.794Z,13.39
2018-09-30T13:31:34.531Z,13.39
2018-09-30T13:34:02.238Z,13.32
2018-09-30T13:36:29.970Z,13.46
2018-09-30T13:38:57.711Z,13.48
2018-09-30T13:41:25.492Z,13.34
2018-09-30T13:43:53.296Z,13.32
2018-09-30T13:46:21.065Z,13.24
2018-09-30T13:48:48.798Z,13.30
2018-09-30T13:51:16.572Z,13.25
2018-09-30T13:53:44.305Z,13.29
2018-09-30T13:56:12.061Z,13.39
2018-09-30T13:58:39.810Z,13.36
2018-09-30T14:01:08.014Z,13.33
2018-09-30T14:03:35.758Z,13.36
2018-09-30T14:06:03.514Z,13.30
2018-09-30T14:08:31.233Z,13.40
2018-09-30T14:10:58.954Z,13.36
2018-09-30T14:13:27.575Z,13.23
2018-09-30T14:15:55.285Z,13.32
2018-09-30T14:18:23.002Z,13.26
2018-09-30T14:20:50.738Z,13.35
2018-09-30T14:23:18.502Z,13.40
2018-09-30T14:25:46.429Z,13.37
2018-09-30T14:28:14.371Z,13.34
2018-09-30T14:30:43.114Z,13.42
2018-09-30T14:33:10.858Z,13.48
2018-09-30T14:35:39.218Z,13.35
2018-09-30T14:38:07.126Z,13.35
2018-09-30T14:40:34.897Z,13.44
2018-09-30T14:43:02.624Z,13.35
2018-09-30T14:45:31.158Z,13.34
2018-09-30T14:47:59.072Z,13.37
2018-09-30T14:50:26.816Z,13.33
2018-09-30T14:52:54.687Z,13.37
2018-09-30T14:55:22.411Z,13.40
2018-09-30T14:57:50.520Z,13.37
2018-09-30T15:00:18.234Z,13.26
2018-09-30T15:02:46.680Z,13.28
2018-09-30T15:05:14.405Z,13.28
2018-09-30T15:07:43.103Z,13.37
2018-09-30T15:10:10.831Z,13.33
2018-09-30T15:12:38.561Z,13.26
2018-09-30T15:15:07.638Z,13.25
2018-09-30T15:17:35.637Z,13.25
2018-09-30T15:20:03.455Z,13.25
2018-09-30T15:22:31.205Z,13.24
2018-09-30T15:24:59.417Z,13.20
2018-09-30T15:27:27.130Z,13.08
2018-09-30T15:29:54.990Z,13.22
2018-09-30T15:32:22.717Z,13.24
2018-09-30T15:34:50.444Z,13.28
2018-09-30T15:37:18.176Z,13.29
2018-09-30T15:39:45.916Z,13.23
2018-09-30T15:42:13.620Z,13.23
2018-09-30T15:44:41.366Z,13.31
2018-09-30T15:47:09.101Z,13.28
2018-09-30T15:49:36.853Z,13.26
2018-09-30T15:52:04.858Z,13.26
2018-09-30T15:54:32.706Z,13.30
2018-09-30T15:57:00.448Z,13.38
2018-09-30T15:59:28.177Z,13.25
2018-09-30T16:01:55.894Z,13.18
2018-09-30T16:04:23.610Z,13.24
2018-09-30T16:06:51.310Z,13.21
2018-09-30T16:09:19.033Z,13.19
2018-09-30T16:11:46.738Z,13.30
2018-09-30T16:14:14.449Z,13.24
2018-09-30T16:16:42.152Z,13.26
2018-09-30T16:19:09.873Z,13.30
2018-09-30T16:21:37.590Z,13.28
2018-09-30T16:24:05.326Z,13.25
2018-09-30T16:26:33.185Z,13.32
2018-09-30T16:29:00.938Z,13.31
2018-09-30T16:31:28.726Z,13.31
2018-09-30T16:33:56.442Z,13.23
2018-09-30T16:36:24.138Z,13.28
2018-09-30T16:38:51.903Z,13.18
2018-09-30T16:41:19.685Z,13.17
2018-09-30T16:43:47.370Z,13.23
2018-09-30T16:46:15.194Z,13.18
2018-09-30T16:48:42.942Z,13.17
2018-09-30T16:51:10.656Z,13.19
2018-09-30T16:53:38.371Z,13.25
2018-09-30T16:56:06.134Z,13.19
2018-09-30T16:58:33.846Z,13.30
2018-09-30T17:01:01.578Z,13.27
2018-09-30T17:03:29.277Z,13.15
2018-09-30T17:05:56.997Z,13.19
2018-09-30T17:08:24.969Z,13.26
2018-09-30T17:10:52.694Z,13.13
2018-09-30T17:13:20.422Z,13.20
2018-09-30T17:15:48.215Z,13.24
2018-09-30T17:18:15.934Z,13.26
2018-09-30T17:20:43.902Z,13.23
2018-09-30T17:23:11.702Z,13.27
2018-09-30T17:25:39.559Z,13.23
2018-09-30T17:28:07.354Z,13.19
2018-09-30T17:30:35.150Z,13.13
2018-09-30T17:33:02.955Z,13.18
2018-09-30T17:35:30.795Z,13.18
2018-09-30T17:37:58.676Z,13.16
2018-09-30T17:40:26.408Z,13.10
2018-09-30T17:42:54.299Z,13.17
2018-09-30T17:45:22.169Z,13.20
2018-09-30T17:47:49.963Z,13.14
2018-09-30T17:50:17.754Z,13.11
2018-09-30T17:52:45.590Z,13.11
2018-09-30T17:55:13.356Z,13.09
2018-09-30T17:57:41.119Z,13.02
2018-09-30T18:00:08.994Z,13.11
2018-09-30T18:02:36.802Z,13.16
2018-09-30T18:05:04.902Z,13.12
2018-09-30T18:07:32.977Z,13.11
2018-09-30T18:10:00.903Z,13.10
2018-09-30T18:12:28.729Z,13.18
2018-09-30T18:14:56.573Z,13.19
2018-09-30T18:17:24.401Z,13.19
2018-09-30T18:19:52.214Z,13.14
2018-09-30T18:22:20.425Z,13.15
2018-09-30T18:24:48.263Z,13.24
2018-09-30T18:27:16.154Z,13.25
2018-09-30T18:29:43.974Z,13.16
2018-09-30T18:32:11.793Z,13.15
2018-09-30T18:34:39.501Z,13.18
2018-09-30T18:37:07.317Z,13.10
2018-09-30T18:39:35.097Z,13.18
2018-09-30T18:42:02.958Z,13.19
2018-09-30T18:44:30.809Z,13.17
2018-09-30T18:46:58.588Z,13.14
2018-09-30T18:49:26.343Z,13.15
2018-09-30T18:51:54.090Z,13.12
2018-09-30T18:54:21.833Z,13.04
2018-09-30T18:56:49.790Z,13.12
2018-09-30T18:59:17.579Z,13.08
2018-09-30T19:01:45.525Z,13.14
2018-09-30T19:04:13.323Z,13.04
2018-09-30T19:06:41.237Z,13.05
2018-09-30T19:09:09.390Z,13.09
2018-09-30T19:11:37.141Z,13.09
2018-09-30T19:14:05.406Z,12.98
2018-09-30T19:16:33.566Z,13.14
2018-09-30T19:19:01.447Z,13.11
2018-09-30T19:21:29.484Z,13.01
2018-09-30T19:23:57.662Z,13.04
2018-09-30T19:26:25.370Z,12.97
2018-09-30T19:28:53.082Z,13.02
2018-09-30T19:31:20.800Z,13.03
2018-09-30T19:33:48.517Z,13.03
2018-09-30T19:36:16.408Z,13.08
2018-09-30T19:38:44.094Z,12.99
2018-09-30T19:41:11.814Z,13.00
2018-09-30T19:43:39.526Z,13.04
2018-09-30T19:46:07.767Z,12.99
2018-09-30T19:48:35.528Z,13.11
2018-09-30T19:51:03.662Z,13.05
2018-09-30T19:53:31.607Z,13.13
2018-09-30T19:55:59.339Z,13.05
2018-09-30T19:58:27.069Z,13.04
2018-09-30T20:00:54.852Z,13.05
2018-09-30T20:03:22.561Z,13.05
2018-09-30T20:05:50.277Z,13.12
2018-09-30T20:08:17.994Z,13.08
2018-09-30T20:10:45.709Z,13.08
2018-09-30T20:13:13.783Z,13.05
2018-09-30T20:15:41.618Z,13.14
2018-09-30T20:18:09.355Z,13.10
2018-09-30T20:20:37.240Z,13.09
2018-09-30T20:23:05.110Z,13.10
2018-09-30T20:25:32.999Z,13.16
2018-09-30T20:28:00.771Z,13.12
2018-09-30T20:30:28.667Z,13.10
2018-09-30T20:32:56.466Z,13.05
2018-09-30T20:35:24.221Z,13.11
2018-09-30T20:37:52.117Z,13.12
2018-09-30T20:40:19.881Z,13.15
2018-09-30T20:42:47.709Z,13.21
2018-09-30T20:45:15.510Z,13.19
2018-09-30T20:47:43.387Z,13.21
2018-09-30T20:50:11.149Z,13.19
2018-09-30T20:52:39.021Z,13.05
2018-09-30T20:55:06.905Z,13.09
2018-09-30T20:57:37.709Z,13.13
2018-09-30T21:00:05.670Z,13.18
2018-09-30T21:02:33.377Z,13.16
2018-09-30T21:05:12.486Z,13.15
2018-09-30T21:07:40.164Z,13.10
2018-09-30T21:10:07.943Z,13.12
2018-09-30T21:12:35.715Z,13.11
2018-09-30T21:15:03.470Z,13.13
2018-09-30T21:17:31.193Z,13.16
2018-09-30T21:19:58.903Z,13.12
2018-09-30T21:22:26.622Z,13.15
2018-09-30T21:24:54.338Z,13.16
2018-09-30T21:27:22.094Z,13.08
2018-09-30T21:29:49.814Z,13.11
2018-09-30T21:32:17.534Z,13.08
2018-09-30T21:34:45.311Z,13.07
2018-09-30T21:37:13.045Z,13.14
2018-09-30T21:39:40.779Z,13.05
2018-09-30T21:42:08.489Z,13.12
2018-09-30T21:44:36.215Z,13.08
2018-09-30T21:47:03.943Z,13.04
2018-09-30T21:49:31.667Z,13.10
2018-09-30T21:51:59.402Z,13.13
2018-09-30T21:54:27.134Z,13.15
2018-09-30T21:56:54.848Z,13.15
2018-09-30T21:59:22.557Z,13.09
2018-09-30T22:01:50.341Z,13.15
2018-09-30T22:04:18.026Z,13.18
2018-09-30T22:06:45.835Z,13.13
2018-09-30T22:09:13.542Z,13.08
2018-09-30T22:11:41.309Z,13.13
2018-09-30T22:14:09.139Z,13.17
2018-09-30T22:16:36.878Z,13.21
2018-09-30T22:19:04.642Z,13.16
2018-09-30T22:21:32.365Z,13.16
2018-09-30T22:24:00.075Z,13.24
2018-09-30T22:26:27.802Z,13.15
2018-09-30T22:28:55.546Z,13.12
2018-09-30T22:31:23.302Z,13.12
2018-09-30T22:33:51.036Z,13.18
2018-09-30T22:36:18.769Z,13.15
2018-09-30T22:38:46.534Z,13.08
2018-09-30T22:41:14.254Z,13.04
2018-09-30T22:43:41.972Z,13.14
2018-09-30T22:46:09.691Z,13.07
2018-09-30T22:48:37.406Z,13.26
2018-09-30T22:51:05.115Z,13.13
2018-09-30T22:53:32.862Z,13.17
2018-09-30T22:56:00.582Z,13.11
2018-09-30T22:58:28.292Z,13.05
2018-09-30T23:00:55.993Z,13.07
2018-09-30T23:03:23.702Z,13.09
2018-09-30T23:05:51.416Z,13.09
2018-09-30T23:08:19.214Z,13.14
2018-09-30T23:10:46.982Z,13.09
2018-09-30T23:13:14.702Z,13.11
2018-09-30T23:15:42.431Z,13.12
2018-09-30T23:18:10.157Z,13.19
2018-09-30T23:20:37.858Z,13.14
2018-09-30T23:23:05.626Z,13.13
2018-09-30T23:25:33.346Z,13.17
2018-09-30T23:28:01.047Z,13.20
2018-09-30T23:30:28.795Z,13.15
2018-09-30T23:32:56.504Z,13.08
2018-09-30T23:35:24.218Z,13.18
2018-09-30T23:37:51.949Z,13.20
2018-09-30T23:40:19.681Z,13.23
2018-09-30T23:42:47.431Z,13.14
2018-09-30T23:45:15.172Z,13.17
2018-09-30T23:47:42.886Z,13.19
2018-09-30T23:50:10.619Z,13.16
2018-09-30T23:52:38.402Z,13.17
2018-09-30T23:55:06.219Z,13.13
2018-09-30T23:57:33.930Z,13.13
